createdAt,value
2023-10-01T00:01:14.960Z,16.05
2023-10-01T00:04:18.922Z,16.09
2023-10-01T00:07:22.067Z,16.04
2023-10-01T00:10:27.082Z,16.05
2023-10-01T00:13:30.538Z,16.06
2023-10-01T00:16:33.789Z,16.06
2023-10-01T00:19:39.972Z,15.98
2023-10-01T00:22:43.043Z,15.96
2023-10-01T00:25:47.125Z,15.96
2023-10-01T00:28:53.221Z,15.95
2023-10-01T00:31:56.639Z,15.97
2023-10-01T00:35:00.940Z,15.95
2023-10-01T00:38:03.862Z,15.97
2023-10-01T00:41:09.919Z,15.98
2023-10-01T00:44:14.582Z,16.04
2023-10-01T00:47:21.706Z,16.02
2023-10-01T00:50:24.905Z,16.03
2023-10-01T00:53:29.092Z,15.97
2023-10-01T00:56:32.669Z,15.90
2023-10-01T00:59:37.194Z,15.85
2023-10-01T01:02:47.711Z,15.80
2023-10-01T01:06:01.187Z,15.75
2023-10-01T01:09:11.849Z,15.71
2023-10-01T01:12:16.797Z,15.71
2023-10-01T01:15:22.759Z,15.60
2023-10-01T01:18:27.909Z,15.58
2023-10-01T01:21:32.976Z,15.54
2023-10-01T01:24:37.427Z,15.54
2023-10-01T01:27:41.602Z,15.53
2023-10-01T01:30:49.014Z,15.52
2023-10-01T01:33:57.395Z,15.42
2023-10-01T01:37:00.651Z,15.36
2023-10-01T01:40:14.746Z,15.40
2023-10-01T01:43:21.477Z,15.34
2023-10-01T01:46:24.680Z,15.32
2023-10-01T01:49:27.702Z,15.22
2023-10-01T01:52:30.792Z,15.17
2023-10-01T01:55:36.002Z,15.17
2023-10-01T01:58:45.280Z,15.19
2023-10-01T02:01:50.682Z,15.31
2023-10-01T02:05:10.273Z,15.34
2023-10-01T02:08:25.162Z,15.35
2023-10-01T02:11:34.139Z,15.29
2023-10-01T02:14:38.988Z,15.28
2023-10-01T02:17:41.836Z,15.22
2023-10-01T02:20:46.073Z,15.19
2023-10-01T02:23:49.169Z,15.27
2023-10-01T02:26:54.387Z,15.29
2023-10-01T02:30:16.380Z,15.30
2023-10-01T02:33:22.506Z,15.21
2023-10-01T02:36:27.448Z,15.15
2023-10-01T02:39:30.599Z,15.10
2023-10-01T02:42:33.675Z,15.13
2023-10-01T02:45:42.550Z,15.13
2023-10-01T02:48:48.868Z,15.03
2023-10-01T02:51:52.183Z,14.96
2023-10-01T02:54:59.171Z,14.89
2023-10-01T02:58:18.891Z,14.83
2023-10-01T03:01:22.642Z,14.69
2023-10-01T03:04:28.919Z,14.55
2023-10-01T03:07:40.190Z,14.37
2023-10-01T03:10:47.931Z,14.23
2023-10-01T03:13:53.008Z,14.16
2023-10-01T03:16:56.960Z,14.08
2023-10-01T03:20:13.752Z,14.04
2023-10-01T03:23:28.899Z,14.07
2023-10-01T03:26:34.611Z,13.93
2023-10-01T03:29:38.457Z,13.81
2023-10-01T03:33:17.302Z,13.71
2023-10-01T03:36:26.361Z,13.77
2023-10-01T03:39:29.555Z,13.67
2023-10-01T03:42:34.994Z,13.71
2023-10-01T03:45:53.393Z,13.64
2023-10-01T03:49:02.718Z,13.54
2023-10-01T03:52:10.867Z,13.54
2023-10-01T03:55:29.770Z,13.33
2023-10-01T03:58:37.616Z,13.46
2023-10-01T04:01:59.774Z,13.36
2023-10-01T04:05:06.796Z,13.38
2023-10-01T04:08:11.411Z,13.39
2023-10-01T04:11:16.621Z,13.34
2023-10-01T04:14:19.730Z,13.39
2023-10-01T04:17:27.269Z,13.50
2023-10-01T04:20:30.993Z,13.37
2023-10-01T04:23:42.249Z,13.28
2023-10-01T04:26:46.774Z,13.22
2023-10-01T04:29:58.641Z,13.25
2023-10-01T04:33:18.002Z,13.23
2023-10-01T04:36:21.839Z,13.15
2023-10-01T04:39:24.920Z,13.16
2023-10-01T04:42:27.857Z,12.91
2023-10-01T04:45:42.544Z,12.94
2023-10-01T04:48:46.483Z,12.94
2023-10-01T04:51:49.332Z,12.90
2023-10-01T04:54:53.437Z,12.83
2023-10-01T04:57:58.409Z,12.89
2023-10-01T05:01:03.192Z,12.89
2023-10-01T05:04:15.037Z,12.87
2023-10-01T05:07:18.245Z,12.91
2023-10-01T05:10:21.429Z,12.88
2023-10-01T05:13:24.604Z,13.09
2023-10-01T05:16:28.146Z,13.08
2023-10-01T05:19:31.306Z,13.28
2023-10-01T05:22:47.976Z,13.35
2023-10-01T05:25:51.869Z,13.34
2023-10-01T05:28:55.869Z,13.37
2023-10-01T05:31:58.790Z,13.44
2023-10-01T05:35:16.223Z,13.85
2023-10-01T05:38:20.476Z,14.03
2023-10-01T05:41:34.125Z,14.26
2023-10-01T05:44:37.280Z,14.33
2023-10-01T05:47:42.970Z,14.48
2023-10-01T05:50:48.968Z,14.50
2023-10-01T05:53:53.396Z,14.51
2023-10-01T05:56:56.646Z,14.58
2023-10-01T06:00:01.390Z,14.62
2023-10-01T06:03:16.663Z,14.66
2023-10-01T06:06:26.183Z,14.75
2023-10-01T06:09:34.332Z,14.83
2023-10-01T06:12:51.765Z,15.10
2023-10-01T06:15:57.444Z,15.36
2023-10-01T06:19:01.520Z,15.45
2023-10-01T06:22:14.525Z,15.52
2023-10-01T06:25:17.854Z,15.62
2023-10-01T06:28:24.747Z,15.68
2023-10-01T06:31:28.523Z,15.76
2023-10-01T06:34:40.571Z,15.90
2023-10-01T06:37:51.994Z,15.95
2023-10-01T06:40:54.999Z,16.05
2023-10-01T06:43:58.093Z,16.18
2023-10-01T06:47:15.926Z,16.34
2023-10-01T06:50:22.119Z,16.48
2023-10-01T06:53:45.107Z,16.79
2023-10-01T06:56:49.416Z,17.04
2023-10-01T06:59:52.523Z,17.09
2023-10-01T07:03:15.052Z,17.24
2023-10-01T07:06:17.925Z,17.41
2023-10-01T07:09:26.286Z,17.63
2023-10-01T07:12:30.652Z,17.62
2023-10-01T07:15:41.322Z,17.68
2023-10-01T07:18:45.400Z,17.65
2023-10-01T07:21:58.115Z,17.72
2023-10-01T07:25:04.765Z,17.73
2023-10-01T07:28:08.675Z,17.58
2023-10-01T07:31:14.643Z,17.71
2023-10-01T07:34:18.073Z,17.89
2023-10-01T07:37:27.612Z,18.01
2023-10-01T07:40:50.884Z,18.04
2023-10-01T07:43:56.539Z,18.06
2023-10-01T07:47:02.223Z,18.18
2023-10-01T07:50:13.908Z,18.12
2023-10-01T07:53:17.014Z,18.20
2023-10-01T07:56:23.217Z,18.32
2023-10-01T07:59:35.710Z,18.46
2023-10-01T08:02:58.955Z,18.59
2023-10-01T08:06:18.050Z,18.76
2023-10-01T08:09:22.877Z,18.90
2023-10-01T08:12:30.629Z,18.92
2023-10-01T08:15:40.552Z,19.00
2023-10-01T08:18:47.639Z,19.12
2023-10-01T08:21:55.181Z,19.32
2023-10-01T08:25:02.653Z,19.34
2023-10-01T08:28:15.178Z,19.35
2023-10-01T08:31:50.370Z,19.41
2023-10-01T08:35:02.983Z,19.49
2023-10-01T08:38:16.965Z,19.53
2023-10-01T08:41:36.189Z,19.52
2023-10-01T08:44:50.906Z,19.57
2023-10-01T08:48:01.166Z,19.64
2023-10-01T08:51:12.462Z,19.77
2023-10-01T08:54:18.794Z,19.92
2023-10-01T08:57:38.199Z,20.04
2023-10-01T09:00:49.759Z,20.12
2023-10-01T09:03:53.230Z,20.14
2023-10-01T09:07:05.556Z,20.11
2023-10-01T09:10:10.834Z,20.12
2023-10-01T09:13:22.179Z,19.97
2023-10-01T09:16:35.453Z,19.74
2023-10-01T09:19:52.074Z,19.83
2023-10-01T09:23:02.320Z,19.49
2023-10-01T09:26:05.091Z,19.40
2023-10-01T09:29:22.293Z,19.66
2023-10-01T09:32:53.130Z,19.90
2023-10-01T09:36:04.294Z,20.06
2023-10-01T09:39:08.181Z,20.06
2023-10-01T09:42:26.168Z,20.22
2023-10-01T09:45:42.933Z,20.33
2023-10-01T09:48:50.422Z,20.52
2023-10-01T09:51:56.547Z,20.63
2023-10-01T09:55:08.640Z,20.76
2023-10-01T09:58:13.355Z,20.87
2023-10-01T10:01:19.147Z,20.85
2023-10-01T10:04:24.574Z,20.87
2023-10-01T10:07:27.622Z,20.98
2023-10-01T10:10:31.173Z,21.05
2023-10-01T10:13:38.450Z,21.12
2023-10-01T10:16:59.074Z,21.12
2023-10-01T10:20:35.095Z,21.10
2023-10-01T10:24:19.181Z,21.10
2023-10-01T10:27:48.016Z,20.93
2023-10-01T10:31:33.024Z,20.84
2023-10-01T10:34:38.238Z,20.67
2023-10-01T10:37:46.380Z,20.86
2023-10-01T10:41:08.730Z,21.34
2023-10-01T10:44:11.955Z,21.55
2023-10-01T10:47:16.768Z,21.91
2023-10-01T10:50:20.684Z,22.06
2023-10-01T10:53:31.140Z,22.41
2023-10-01T10:56:40.849Z,22.65
2023-10-01T10:59:48.884Z,22.48
2023-10-01T11:02:58.297Z,22.26
2023-10-01T11:06:18.286Z,22.73
2023-10-01T11:09:28.256Z,23.13
2023-10-01T11:12:36.644Z,23.22
2023-10-01T11:15:44.312Z,23.26
2023-10-01T11:18:49.137Z,23.45
2023-10-01T11:21:59.924Z,23.43
2023-10-01T11:25:04.973Z,23.30
2023-10-01T11:28:07.986Z,23.35
2023-10-01T11:31:24.571Z,23.15
2023-10-01T11:34:44.704Z,23.27
2023-10-01T11:37:47.959Z,23.44
2023-10-01T11:41:11.277Z,23.40
2023-10-01T11:44:26.217Z,23.48
2023-10-01T11:48:06.187Z,23.16
2023-10-01T11:51:10.129Z,23.00
2023-10-01T11:54:15.239Z,23.07
2023-10-01T11:57:23.797Z,23.03
2023-10-01T12:00:45.284Z,23.09
2023-10-01T12:03:59.440Z,23.22
2023-10-01T12:07:02.285Z,23.52
2023-10-01T12:10:06.554Z,23.61
2023-10-01T12:13:11.721Z,23.67
2023-10-01T12:16:14.655Z,23.43
2023-10-01T12:19:26.855Z,23.49
2023-10-01T12:22:31.237Z,23.45
2023-10-01T12:25:51.520Z,23.21
2023-10-01T12:29:13.947Z,22.95
2023-10-01T12:32:18.085Z,22.80
2023-10-01T12:35:30.503Z,22.87
2023-10-01T12:38:33.528Z,22.67
2023-10-01T12:41:54.523Z,22.66
2023-10-01T12:45:14.704Z,22.54
2023-10-01T12:48:21.623Z,22.55
2023-10-01T12:51:34.179Z,22.61
2023-10-01T12:54:38.223Z,22.57
2023-10-01T12:57:42.909Z,22.56
2023-10-01T13:00:46.515Z,22.44
2023-10-01T13:03:50.827Z,22.48
2023-10-01T13:07:12.841Z,22.41
2023-10-01T13:10:20.109Z,22.32
2023-10-01T13:13:31.115Z,22.23
2023-10-01T13:16:35.010Z,22.22
2023-10-01T13:19:37.974Z,22.17
2023-10-01T13:22:43.046Z,22.07
2023-10-01T13:25:47.894Z,22.12
2023-10-01T13:28:52.702Z,22.21
2023-10-01T13:32:04.138Z,22.09
2023-10-01T13:35:27.569Z,21.96
2023-10-01T13:38:34.512Z,22.05
2023-10-01T13:41:37.864Z,22.14
2023-10-01T13:44:59.976Z,22.12
2023-10-01T13:48:21.219Z,22.06
2023-10-01T13:51:42.797Z,22.01
2023-10-01T13:55:04.324Z,21.94
2023-10-01T13:58:26.574Z,21.94
2023-10-01T14:01:48.618Z,21.87
2023-10-01T14:05:10.241Z,21.83
2023-10-01T14:08:32.276Z,21.76
2023-10-01T14:11:41.426Z,21.67
2023-10-01T14:14:45.897Z,21.66
2023-10-01T14:17:59.315Z,21.57
2023-10-01T14:21:13.792Z,21.49
2023-10-01T14:24:25.898Z,21.47
2023-10-01T14:27:30.983Z,21.36
2023-10-01T14:30:34.190Z,21.32
2023-10-01T14:33:41.358Z,21.29
2023-10-01T14:36:45.298Z,21.24
2023-10-01T14:39:49.021Z,21.21
2023-10-01T14:43:00.260Z,21.12
2023-10-01T14:46:03.470Z,21.15
2023-10-01T14:49:06.452Z,21.05
2023-10-01T14:52:24.292Z,21.07
2023-10-01T14:55:34.636Z,21.03
2023-10-01T14:58:38.134Z,21.03
2023-10-01T15:01:46.582Z,21.05
2023-10-01T15:04:49.850Z,20.98
2023-10-01T15:07:52.966Z,20.94
2023-10-01T15:10:58.970Z,20.91
2023-10-01T15:14:13.050Z,20.97
2023-10-01T15:17:19.277Z,20.99
2023-10-01T15:20:48.443Z,21.02
2023-10-01T15:24:00.456Z,21.02
2023-10-01T15:27:06.087Z,20.94
2023-10-01T15:30:22.676Z,20.84
2023-10-01T15:33:26.889Z,20.79
2023-10-01T15:36:49.867Z,20.74
2023-10-01T15:39:52.866Z,20.69
2023-10-01T15:42:57.182Z,20.69
2023-10-01T15:46:14.050Z,20.61
2023-10-01T15:49:21.636Z,20.62
2023-10-01T15:52:26.482Z,20.56
2023-10-01T15:55:33.415Z,20.44
2023-10-01T15:58:37.701Z,20.39
2023-10-01T16:01:52.132Z,20.33
2023-10-01T16:05:00.950Z,20.22
2023-10-01T16:08:04.856Z,20.09
2023-10-01T16:11:10.378Z,19.95
2023-10-01T16:14:27.918Z,19.83
2023-10-01T16:17:33.875Z,19.73
2023-10-01T16:20:39.755Z,19.61
2023-10-01T16:23:43.571Z,19.50
2023-10-01T16:26:47.999Z,19.36
2023-10-01T16:29:51.112Z,19.23
2023-10-01T16:32:55.044Z,19.13
2023-10-01T16:36:08.272Z,18.97
2023-10-01T16:39:19.283Z,18.88
2023-10-01T16:42:24.640Z,18.83
2023-10-01T16:45:32.934Z,18.62
2023-10-01T16:48:35.791Z,18.54
2023-10-01T16:51:42.905Z,18.48
2023-10-01T16:54:49.266Z,18.38
2023-10-01T16:57:57.822Z,18.33
2023-10-01T17:01:13.721Z,18.36
2023-10-01T17:04:29.722Z,18.33
2023-10-01T17:07:40.025Z,18.26
2023-10-01T17:10:46.148Z,18.21
2023-10-01T17:13:49.426Z,18.20
2023-10-01T17:16:52.757Z,18.11
2023-10-01T17:20:15.231Z,18.00
2023-10-01T17:23:22.586Z,17.94
2023-10-01T17:26:29.464Z,17.86
2023-10-01T17:29:34.571Z,17.85
2023-10-01T17:32:37.490Z,17.75
2023-10-01T17:35:48.810Z,17.67
2023-10-01T17:38:55.241Z,17.65
2023-10-01T17:42:01.225Z,17.57
2023-10-01T17:45:05.206Z,17.57
2023-10-01T17:48:17.812Z,17.53
2023-10-01T17:51:24.442Z,17.46
2023-10-01T17:54:29.081Z,17.33
2023-10-01T17:57:42.642Z,17.33
2023-10-01T18:00:52.629Z,17.19
2023-10-01T18:03:59.326Z,17.17
2023-10-01T18:07:04.166Z,17.02
2023-10-01T18:10:26.701Z,17.01
2023-10-01T18:13:29.887Z,17.01
2023-10-01T18:16:34.382Z,16.97
2023-10-01T18:19:50.847Z,16.90
2023-10-01T18:22:59.482Z,16.93
2023-10-01T18:26:05.068Z,16.89
2023-10-01T18:29:16.038Z,16.94
2023-10-01T18:32:19.879Z,16.94
2023-10-01T18:35:25.901Z,16.85
2023-10-01T18:38:35.046Z,16.69
2023-10-01T18:41:42.118Z,16.60
2023-10-01T18:44:45.382Z,16.55
2023-10-01T18:47:50.835Z,16.49
2023-10-01T18:50:58.017Z,16.41
2023-10-01T18:54:01.269Z,16.36
2023-10-01T18:57:05.273Z,16.30
2023-10-01T19:00:22.356Z,16.28
2023-10-01T19:03:26.501Z,16.20
2023-10-01T19:06:33.851Z,16.25
2023-10-01T19:09:36.915Z,16.24
2023-10-01T19:12:40.733Z,16.15
2023-10-01T19:15:45.083Z,16.13
2023-10-01T19:18:54.007Z,16.10
2023-10-01T19:21:58.437Z,16.05
2023-10-01T19:25:04.745Z,15.94
2023-10-01T19:28:09.569Z,15.95
2023-10-01T19:31:14.058Z,15.94
2023-10-01T19:34:21.316Z,15.86
2023-10-01T19:37:28.624Z,15.82
2023-10-01T19:40:35.190Z,15.82
2023-10-01T19:43:40.881Z,15.79
2023-10-01T19:46:43.922Z,15.77
2023-10-01T19:49:50.179Z,15.82
2023-10-01T19:52:56.037Z,15.77
2023-10-01T19:56:08.469Z,15.76
2023-10-01T19:59:17.600Z,15.73
2023-10-01T20:02:34.032Z,15.77
2023-10-01T20:05:41.824Z,15.67
2023-10-01T20:08:48.989Z,15.59
2023-10-01T20:12:00.374Z,15.57
2023-10-01T20:15:05.211Z,15.57
2023-10-01T20:18:14.758Z,15.57
2023-10-01T20:21:23.834Z,15.46
2023-10-01T20:24:29.516Z,15.38
2023-10-01T20:27:36.017Z,15.29
2023-10-01T20:30:43.383Z,15.30
2023-10-01T20:33:53.066Z,15.21
2023-10-01T20:37:00.300Z,15.23
2023-10-01T20:40:16.314Z,15.18
2023-10-01T20:43:27.955Z,15.09
2023-10-01T20:46:31.647Z,15.09
2023-10-01T20:49:44.890Z,15.10
2023-10-01T20:52:48.570Z,15.05
2023-10-01T20:55:51.951Z,15.04
2023-10-01T20:58:58.208Z,14.98
2023-10-01T21:02:06.301Z,15.05
2023-10-01T21:05:15.278Z,15.07
2023-10-01T21:08:19.776Z,15.01
2023-10-01T21:11:27.754Z,14.97
2023-10-01T21:14:38.562Z,14.98
2023-10-01T21:17:48.600Z,14.98
2023-10-01T21:20:59.657Z,15.02
2023-10-01T21:24:03.738Z,15.03
2023-10-01T21:27:12.075Z,15.07
2023-10-01T21:30:17.301Z,15.05
2023-10-01T21:33:21.936Z,14.95
2023-10-01T21:36:24.699Z,15.02
2023-10-01T21:39:28.007Z,15.02
2023-10-01T21:42:33.654Z,15.00
2023-10-01T21:45:41.736Z,15.02
2023-10-01T21:48:45.274Z,15.03
2023-10-01T21:51:48.346Z,15.08
2023-10-01T21:54:51.646Z,15.01
2023-10-01T21:57:55.098Z,14.97
2023-10-01T22:01:03.705Z,14.96
2023-10-01T22:04:29.411Z,14.92
2023-10-01T22:07:32.420Z,14.91
2023-10-01T22:10:41.506Z,14.75
2023-10-01T22:13:44.658Z,14.94
2023-10-01T22:16:54.338Z,14.90
2023-10-01T22:19:58.710Z,14.94
2023-10-01T22:23:05.053Z,14.84
2023-10-01T22:26:11.336Z,14.82
2023-10-01T22:29:15.891Z,14.81
2023-10-01T22:32:19.037Z,14.89
2023-10-01T22:35:26.456Z,14.78
2023-10-01T22:38:32.923Z,14.75
2023-10-01T22:41:35.820Z,14.87
2023-10-01T22:44:40.292Z,14.90
2023-10-01T22:47:48.863Z,14.97
2023-10-01T22:50:56.340Z,14.98
2023-10-01T22:54:06.188Z,14.92
2023-10-01T22:57:11.071Z,14.74
2023-10-01T23:00:22.966Z,14.61
2023-10-01T23:03:28.254Z,14.63
2023-10-01T23:06:31.359Z,14.74
2023-10-01T23:09:34.535Z,14.90
2023-10-01T23:12:41.641Z,14.93
2023-10-01T23:15:50.400Z,14.95
2023-10-01T23:19:13.200Z,14.84
2023-10-01T23:22:18.668Z,14.75
2023-10-01T23:25:25.076Z,14.74
2023-10-01T23:28:32.567Z,14.66
2023-10-01T23:31:49.235Z,14.73
2023-10-01T23:34:58.444Z,14.65
2023-10-01T23:38:21.238Z,14.77
2023-10-01T23:41:52.127Z,14.77
2023-10-01T23:44:55.270Z,14.70
2023-10-01T23:48:06.723Z,14.69
2023-10-01T23:51:10.265Z,14.75
2023-10-01T23:54:13.062Z,14.65
2023-10-01T23:57:16.295Z,14.70
